Time;durP1;ratioP1;P1;durP2;ratioP2;P2;SDS_P1;SDS_P2;PMS_P1;PMS_P2;Temp;Humidity;BMP_temperature;BMP_pressure;BME280_temperature;BME280_humidity;BME280_pressure;Samples;Min_cycle;Max_cycle;Signal;HPM_P1;HPM_P2
2022/08/05 00:01:16;;;;;;;9.15;6.28;;;;;;;;;;6184031;28;20054;-69
2022/08/05 00:04:18;;;;;;;9.93;4.13;;;;;;;;;;6180546;28;20053;-70
2022/08/05 00:07:21;;;;;;;7.27;4.13;;;;;;;;;;6177782;28;20122;-69
2022/08/05 00:10:23;;;;;;;8.88;4.20;;;;;;;;;;6185334;28;20356;-68
2022/08/05 00:13:25;;;;;;;6.20;3.80;;;;;;;;;;6185464;28;20081;-70
2022/08/05 00:16:27;;;;;;;8.30;4.22;;;;;;;;;;6183124;28;20101;-67
2022/08/05 00:19:29;;;;;;;7.00;3.80;;;;;;;;;;6178162;28;20051;-68
2022/08/05 00:22:32;;;;;;;7.75;4.18;;;;;;;;;;6181745;28;20469;-67
2022/08/05 00:25:33;;;;;;;5.50;4.18;;;;;;;;;;6182523;28;20061;-71
2022/08/05 00:28:35;;;;;;;10.18;4.35;;;;;;;;;;6184613;28;20278;-68
2022/08/05 00:31:37;;;;;;;9.70;4.50;;;;;;;;;;6189531;28;20094;-68
2022/08/05 00:34:39;;;;;;;6.40;4.03;;;;;;;;;;6186386;28;20047;-69
2022/08/05 00:37:42;;;;;;;8.60;4.33;;;;;;;;;;6184868;28;20054;-68
2022/08/05 00:40:49;;;;;;;8.23;4.97;;;;;;;;;;6182658;28;20054;-68
2022/08/05 00:43:51;;;;;;;4.90;3.95;;;;;;;;;;6189143;28;20058;-68
2022/08/05 00:46:53;;;;;;;5.95;4.10;;;;;;;;;;6186738;28;20098;-67
2022/08/05 00:49:54;;;;;;;7.93;4.43;;;;;;;;;;6187674;28;20046;-68
2022/08/05 00:52:57;;;;;;;18.35;5.38;;;;;;;;;;6185590;28;20477;-68
2022/08/05 00:55:59;;;;;;;12.77;4.78;;;;;;;;;;6184125;28;20062;-67
2022/08/05 00:59:00;;;;;;;6.40;4.47;;;;;;;;;;6182935;28;20080;-68
2022/08/05 01:02:02;;;;;;;8.95;4.68;;;;;;;;;;6184526;28;20046;-68
2022/08/05 01:05:04;;;;;;;3.97;3.55;;;;;;;;;;6184063;28;20057;-68
2022/08/05 01:08:07;;;;;;;5.78;3.72;;;;;;;;;;6184030;28;20050;-68
2022/08/05 01:11:12;;;;;;;4.13;3.30;;;;;;;;;;6184381;28;20058;-68
2022/08/05 01:14:21;;;;;;;3.85;3.25;;;;;;;;;;6188043;28;20054;-68
2022/08/05 01:17:27;;;;;;;5.07;3.60;;;;;;;;;;6185466;28;20337;-69
2022/08/05 01:20:34;;;;;;;5.97;3.53;;;;;;;;;;6185780;28;20043;-68
2022/08/05 01:23:57;;;;;;;6.07;3.83;;;;;;;;;;6185126;28;20110;-68
2022/08/05 01:27:06;;;;;;;6.50;4.00;;;;;;;;;;6186783;28;20054;-69
2022/08/05 01:30:10;;;;;;;5.55;3.58;;;;;;;;;;6184469;28;20074;-68
2022/08/05 01:33:13;;;;;;;8.27;3.55;;;;;;;;;;6182779;28;20061;-71
2022/08/05 01:36:17;;;;;;;5.18;3.47;;;;;;;;;;6184808;28;20058;-67
2022/08/05 01:39:19;;;;;;;4.90;3.40;;;;;;;;;;6182400;28;20053;-68
2022/08/05 01:42:23;;;;;;;7.43;3.97;;;;;;;;;;6185530;28;20069;-68
2022/08/05 01:45:26;;;;;;;5.15;3.47;;;;;;;;;;6181785;28;20042;-69
2022/08/05 01:48:30;;;;;;;7.90;3.95;;;;;;;;;;6184320;28;20057;-68
2022/08/05 01:51:34;;;;;;;5.82;3.50;;;;;;;;;;6186538;28;20111;-68
2022/08/05 01:54:40;;;;;;;5.63;3.85;;;;;;;;;;6181895;28;20309;-68
2022/08/05 01:57:44;;;;;;;6.15;3.83;;;;;;;;;;6183317;28;20058;-68
2022/08/05 02:00:50;;;;;;;6.57;3.53;;;;;;;;;;6182981;28;20058;-66
2022/08/05 02:03:53;;;;;;;4.18;3.53;;;;;;;;;;6183242;28;20046;-68
2022/08/05 02:06:55;;;;;;;5.43;3.25;;;;;;;;;;6183046;28;20054;-68
2022/08/05 02:09:58;;;;;;;5.47;3.80;;;;;;;;;;6182024;28;20211;-67
2022/08/05 02:13:02;;;;;;;5.67;3.77;;;;;;;;;;6177378;28;20362;-69
2022/08/05 02:16:10;;;;;;;4.47;3.55;;;;;;;;;;6188387;28;20049;-67
2022/08/05 02:19:17;;;;;;;6.55;3.28;;;;;;;;;;6187092;28;20070;-67
2022/08/05 02:22:23;;;;;;;4.65;3.47;;;;;;;;;;6186594;28;20352;-68
2022/08/05 02:25:26;;;;;;;5.22;3.47;;;;;;;;;;6191526;28;20120;-67
2022/08/05 02:28:30;;;;;;;5.28;3.67;;;;;;;;;;6191221;28;20058;-68
2022/08/05 02:31:34;;;;;;;4.60;3.47;;;;;;;;;;6188192;28;20049;-67
2022/08/05 02:34:37;;;;;;;3.92;3.42;;;;;;;;;;6188259;28;20094;-69
2022/08/05 02:37:39;;;;;;;3.38;3.05;;;;;;;;;;6189848;28;20050;-68
2022/08/05 02:40:42;;;;;;;5.00;3.30;;;;;;;;;;6187829;28;20058;-68
2022/08/05 02:43:46;;;;;;;5.13;3.28;;;;;;;;;;6194200;28;20090;-68
2022/08/05 02:46:49;;;;;;;4.38;3.42;;;;;;;;;;6186960;28;20066;-69
2022/08/05 02:49:51;;;;;;;8.07;3.92;;;;;;;;;;6189040;28;20046;-67
2022/08/05 02:52:53;;;;;;;7.18;4.05;;;;;;;;;;6189893;28;20363;-71
2022/08/05 02:55:55;;;;;;;6.13;3.63;;;;;;;;;;6181238;28;20058;-70
2022/08/05 02:58:58;;;;;;;6.20;3.60;;;;;;;;;;6183564;28;20257;-69
2022/08/05 03:02:02;;;;;;;4.57;3.53;;;;;;;;;;6181942;28;20090;-68
2022/08/05 03:05:05;;;;;;;6.55;3.70;;;;;;;;;;6179269;28;20137;-68
2022/08/05 03:08:07;;;;;;;9.60;3.85;;;;;;;;;;6178744;28;20046;-68
2022/08/05 03:11:19;;;;;;;8.65;3.88;;;;;;;;;;6180690;28;20109;-67
2022/08/05 03:14:21;;;;;;;6.63;3.33;;;;;;;;;;6181467;28;20061;-68
2022/08/05 03:17:24;;;;;;;6.43;3.50;;;;;;;;;;6185452;28;20054;-68
2022/08/05 03:20:26;;;;;;;4.72;3.40;;;;;;;;;;6181326;28;20049;-71
2022/08/05 03:23:28;;;;;;;5.90;3.70;;;;;;;;;;6179520;28;20059;-71
2022/08/05 03:26:29;;;;;;;6.33;3.50;;;;;;;;;;6183557;28;20097;-68
2022/08/05 03:29:31;;;;;;;6.97;3.75;;;;;;;;;;6179657;28;20457;-70
2022/08/05 03:32:34;;;;;;;5.82;3.50;;;;;;;;;;6179583;28;20046;-68
2022/08/05 03:35:36;;;;;;;6.90;3.95;;;;;;;;;;6182990;28;20391;-68
2022/08/05 03:38:40;;;;;;;6.70;3.58;;;;;;;;;;6182533;28;20066;-68
2022/08/05 03:41:42;;;;;;;6.00;3.40;;;;;;;;;;6180344;28;20074;-66
2022/08/05 03:44:43;;;;;;;6.13;3.53;;;;;;;;;;6181548;28;20253;-67
2022/08/05 03:47:46;;;;;;;4.38;3.40;;;;;;;;;;6180828;28;20053;-68
2022/08/05 03:50:53;;;;;;;3.38;3.03;;;;;;;;;;6181437;28;20329;-68
2022/08/05 03:53:57;;;;;;;3.85;3.38;;;;;;;;;;6179997;28;20422;-68
2022/08/05 03:56:59;;;;;;;4.50;3.55;;;;;;;;;;6180744;28;20069;-68
2022/08/05 04:00:04;;;;;;;8.90;3.53;;;;;;;;;;6181579;28;20057;-68
2022/08/05 04:03:08;;;;;;;8.90;3.40;;;;;;;;;;6181223;28;20058;-71
2022/08/05 04:06:10;;;;;;;5.07;3.35;;;;;;;;;;6179981;28;20050;-69
2022/08/05 04:09:12;;;;;;;4.00;3.42;;;;;;;;;;6182610;28;20054;-69
2022/08/05 04:12:13;;;;;;;9.70;3.40;;;;;;;;;;6180978;28;20051;-68
2022/08/05 04:15:15;;;;;;;4.85;3.30;;;;;;;;;;6177133;28;20051;-68
2022/08/05 04:18:18;;;;;;;7.53;3.85;;;;;;;;;;6182793;28;20241;-67
2022/08/05 04:21:20;;;;;;;6.30;3.70;;;;;;;;;;6178616;28;20061;-68
2022/08/05 04:24:22;;;;;;;4.22;3.42;;;;;;;;;;6180907;28;20273;-70
2022/08/05 04:27:23;;;;;;;5.15;3.92;;;;;;;;;;6179294;28;20054;-72
2022/08/05 04:30:25;;;;;;;4.57;3.28;;;;;;;;;;6180116;28;20042;-68
2022/08/05 04:33:29;;;;;;;5.72;3.35;;;;;;;;;;6180041;28;20081;-69
2022/08/05 04:36:30;;;;;;;8.18;3.33;;;;;;;;;;6178638;28;20257;-68
2022/08/05 04:39:33;;;;;;;7.00;3.00;;;;;;;;;;6176748;28;20046;-70
2022/08/05 04:42:35;;;;;;;8.90;4.07;;;;;;;;;;6176041;28;20380;-71
2022/08/05 04:45:37;;;;;;;6.57;3.35;;;;;;;;;;6179363;28;20054;-72
2022/08/05 04:48:40;;;;;;;9.10;3.60;;;;;;;;;;6180028;28;20396;-71
2022/08/05 04:51:42;;;;;;;;;;;;;;;;;;6181278;28;20050;-71
2022/08/05 04:54:44;;;;;;;9.30;3.72;;;;;;;;;;6178974;28;19974;-71
2022/08/05 04:57:46;;;;;;;6.72;3.70;;;;;;;;;;6179605;28;20062;-72
2022/08/05 05:00:47;;;;;;;6.35;3.53;;;;;;;;;;6178372;28;20123;-73
2022/08/05 05:03:50;;;;;;;5.97;3.58;;;;;;;;;;6178977;28;20055;-71
2022/08/05 05:06:52;;;;;;;6.47;3.25;;;;;;;;;;6181195;28;20051;-72
2022/08/05 05:09:54;;;;;;;4.97;2.80;;;;;;;;;;6179276;28;20058;-73
2022/08/05 05:12:55;;;;;;;5.28;3.00;;;;;;;;;;6178549;28;20077;-73
2022/08/05 05:15:57;;;;;;;5.35;3.35;;;;;;;;;;6180706;28;20156;-72
2022/08/05 05:19:00;;;;;;;6.68;3.20;;;;;;;;;;6186056;28;20062;-73
2022/08/05 05:22:01;;;;;;;;;;;;;;;;;;6185427;28;20281;-73
2022/08/05 05:25:04;;;;;;;5.55;3.13;;;;;;;;;;6183746;28;20124;-72
2022/08/05 05:28:06;;;;;;;7.60;3.75;;;;;;;;;;6181181;28;20050;-73
2022/08/05 05:31:07;;;;;;;7.63;3.08;;;;;;;;;;6182327;28;20304;-73
2022/08/05 05:34:10;;;;;;;8.68;3.30;;;;;;;;;;6185531;28;20107;-72
2022/08/05 05:37:13;;;;;;;4.85;3.63;;;;;;;;;;6180947;28;20058;-72
2022/08/05 05:40:15;;;;;;;;;;;;;;;;;;6184626;28;20273;-75
2022/08/05 05:43:17;;;;;;;5.45;3.80;;;;;;;;;;6180425;28;19925;-75
2022/08/05 05:46:18;;;;;;;5.70;3.40;;;;;;;;;;6183461;28;20097;-73
2022/08/05 05:49:21;;;;;;;7.60;4.28;;;;;;;;;;6180923;28;20333;-72
2022/08/05 05:52:23;;;;;;;11.85;4.47;;;;;;;;;;6181617;28;20117;-73
2022/08/05 05:55:25;;;;;;;11.75;4.03;;;;;;;;;;6184711;28;20050;-71
2022/08/05 05:58:27;;;;;;;7.75;4.13;;;;;;;;;;6185452;28;20059;-73
2022/08/05 06:01:28;;;;;;;11.63;4.55;;;;;;;;;;6182036;28;20360;-71
2022/08/05 06:04:31;;;;;;;7.32;4.40;;;;;;;;;;6183510;28;20101;-69
2022/08/05 06:07:33;;;;;;;4.38;3.30;;;;;;;;;;6182787;28;20400;-70
2022/08/05 06:10:35;;;;;;;7.38;3.80;;;;;;;;;;6183821;28;20055;-73
2022/08/05 06:13:37;;;;;;;9.02;3.75;;;;;;;;;;6185499;28;20237;-71
2022/08/05 06:16:38;;;;;;;5.97;3.58;;;;;;;;;;6179334;28;20353;-69
2022/08/05 06:19:41;;;;;;;6.80;3.63;;;;;;;;;;6178568;28;20058;-69
2022/08/05 06:22:43;;;;;;;7.57;3.67;;;;;;;;;;6184835;28;20123;-69
2022/08/05 06:25:45;;;;;;;6.57;3.75;;;;;;;;;;6181916;28;20245;-71
2022/08/05 06:28:46;;;;;;;5.38;3.80;;;;;;;;;;6180616;28;20074;-72
2022/08/05 06:31:48;;;;;;;5.40;3.80;;;;;;;;;;6180291;28;20094;-66
2022/08/05 06:34:51;;;;;;;47.95;6.22;;;;;;;;;;6183730;28;20055;-69
2022/08/05 06:37:53;;;;;;;120.20;12.20;;;;;;;;;;6182407;28;20050;-68
2022/08/05 06:40:54;;;;;;;4.45;3.40;;;;;;;;;;6179595;28;20065;-69
2022/08/05 06:43:56;;;;;;;4.90;3.08;;;;;;;;;;6181748;28;20062;-69
2022/08/05 06:46:58;;;;;;;4.05;2.72;;;;;;;;;;6179176;28;20050;-69
2022/08/05 06:50:01;;;;;;;5.85;2.80;;;;;;;;;;6179148;28;20054;-68
2022/08/05 06:53:02;;;;;;;4.95;2.60;;;;;;;;;;6179536;28;20273;-69
2022/08/05 06:56:05;;;;;;;3.75;2.45;;;;;;;;;;6182788;28;20051;-69
2022/08/05 06:59:07;;;;;;;3.92;2.70;;;;;;;;;;6179639;28;20046;-68
2022/08/05 07:02:09;;;;;;;4.20;2.53;;;;;;;;;;6180978;28;20078;-68
2022/08/05 07:05:12;;;;;;;5.07;2.85;;;;;;;;;;6179850;28;20051;-68
2022/08/05 07:08:14;;;;;;;4.78;2.90;;;;;;;;;;6183185;28;20113;-68
2022/08/05 07:11:16;;;;;;;5.50;3.00;;;;;;;;;;6180382;28;20058;-68
2022/08/05 07:17:37;;;;;;;4.75;3.30;;;;;;;;;;6182100;28;20058;-68
2022/08/05 07:20:40;;;;;;;4.88;2.80;;;;;;;;;;6177057;28;20054;-68
2022/08/05 07:23:42;;;;;;;2.60;2.40;;;;;;;;;;6185577;28;20042;-68
2022/08/05 07:26:44;;;;;;;5.75;2.80;;;;;;;;;;6182589;28;20062;-69
2022/08/05 07:29:45;;;;;;;;;;;;;;;;;;6183359;28;20420;-69
2022/08/05 07:32:47;;;;;;;2.60;2.40;;;;;;;;;;6180616;28;19974;-69
2022/08/05 07:35:50;;;;;;;2.83;2.57;;;;;;;;;;6181429;28;20055;-69
2022/08/05 07:38:52;;;;;;;6.35;3.03;;;;;;;;;;6180606;28;20874;-69
2022/08/05 07:41:53;;;;;;;9.87;3.10;;;;;;;;;;6181163;28;20051;-69
2022/08/05 07:44:55;;;;;;;6.40;2.83;;;;;;;;;;6182209;28;20482;-70
2022/08/05 07:47:57;;;;;;;5.60;3.53;;;;;;;;;;6179284;28;20098;-70
2022/08/05 07:51:01;;;;;;;5.13;3.50;;;;;;;;;;6180341;28;20078;-69
2022/08/05 07:54:03;;;;;;;6.10;3.40;;;;;;;;;;6180349;28;20206;-70
2022/08/05 07:57:05;;;;;;;4.15;2.70;;;;;;;;;;6178295;28;20089;-70
2022/08/05 08:00:07;;;;;;;;;;;;;;;;;;6178095;28;20046;-70
2022/08/05 08:03:11;;;;;;;4.67;3.23;;;;;;;;;;6156440;28;19922;-69
2022/08/05 08:06:14;;;;;;;8.07;3.65;;;;;;;;;;6180184;28;20341;-69
2022/08/05 08:09:16;;;;;;;6.88;3.58;;;;;;;;;;6176218;28;20393;-69
2022/08/05 08:12:17;;;;;;;6.63;3.53;;;;;;;;;;6178420;28;20058;-70
2022/08/05 08:15:19;;;;;;;5.85;2.72;;;;;;;;;;6182019;28;20322;-70
2022/08/05 08:18:21;;;;;;;6.47;2.60;;;;;;;;;;6178257;28;20134;-65
2022/08/05 08:21:24;;;;;;;6.13;2.70;;;;;;;;;;6182400;28;20046;-71
2022/08/05 08:24:26;;;;;;;4.45;2.70;;;;;;;;;;6179048;28;20054;-70
2022/08/05 08:27:27;;;;;;;3.65;2.35;;;;;;;;;;6175965;28;20054;-69
2022/08/05 08:30:29;;;;;;;6.20;2.65;;;;;;;;;;6178843;28;20063;-70
2022/08/05 08:33:31;;;;;;;3.17;2.53;;;;;;;;;;6181469;28;20329;-70
2022/08/05 08:36:34;;;;;;;7.03;2.60;;;;;;;;;;6177481;28;20081;-70
2022/08/05 08:39:35;;;;;;;8.68;2.75;;;;;;;;;;6176901;28;20047;-69
2022/08/05 08:42:38;;;;;;;3.72;2.63;;;;;;;;;;6182748;28;20280;-68
2022/08/05 08:45:40;;;;;;;3.55;2.42;;;;;;;;;;6180237;28;20090;-73
2022/08/05 08:48:42;;;;;;;6.90;2.53;;;;;;;;;;6180771;28;20055;-75
2022/08/05 08:51:47;;;;;;;5.65;2.67;;;;;;;;;;6187918;28;20043;-74
2022/08/05 08:54:51;;;;;;;6.22;2.72;;;;;;;;;;6185005;28;20042;-73
2022/08/05 08:57:53;;;;;;;4.65;2.70;;;;;;;;;;6185095;28;20058;-76
2022/08/05 09:00:55;;;;;;;4.35;2.40;;;;;;;;;;6184220;28;20097;-73
2022/08/05 09:03:57;;;;;;;3.50;2.40;;;;;;;;;;6185451;28;20046;-73
2022/08/05 09:07:00;;;;;;;2.70;2.40;;;;;;;;;;6184574;28;20105;-72
2022/08/05 09:10:02;;;;;;;4.50;3.10;;;;;;;;;;6185236;28;20038;-72
2022/08/05 09:13:03;;;;;;;6.05;2.70;;;;;;;;;;6183788;28;20056;-72
2022/08/05 09:16:07;;;;;;;;;;;;;;;;;;6187304;28;20065;-74
2022/08/05 09:19:08;;;;;;;3.00;2.58;;;;;;;;;;6186655;28;19924;-71
2022/08/05 09:22:11;;;;;;;3.20;2.70;;;;;;;;;;6184412;28;20051;-73
2022/08/05 09:25:18;;;;;;;3.42;2.42;;;;;;;;;;6185106;28;20122;-72
2022/08/05 09:28:23;;;;;;;2.97;2.53;;;;;;;;;;6183180;28;20054;-73
2022/08/05 09:31:25;;;;;;;6.03;2.70;;;;;;;;;;6178731;28;20068;-73
2022/08/05 09:34:46;;;;;;;6.40;2.25;;;;;;;;;;6183491;28;20063;-74
2022/08/05 09:37:53;;;;;;;6.70;2.58;;;;;;;;;;6182849;28;20105;-74
2022/08/05 09:41:02;;;;;;;6.18;2.78;;;;;;;;;;6183702;28;20046;-74
2022/08/05 09:44:04;;;;;;;2.80;2.35;;;;;;;;;;6185441;28;20341;-71
2022/08/05 09:47:10;;;;;;;3.25;2.70;;;;;;;;;;6182802;28;20047;-73
2022/08/05 09:50:12;;;;;;;4.47;2.42;;;;;;;;;;6186300;28;20117;-69
2022/08/05 09:53:15;;;;;;;3.80;2.33;;;;;;;;;;6183579;28;20054;-70
2022/08/05 09:56:24;;;;;;;6.68;2.90;;;;;;;;;;6184384;28;20076;-72
2022/08/05 09:59:26;;;;;;;4.13;2.60;;;;;;;;;;6182369;28;20054;-70
2022/08/05 10:02:34;;;;;;;5.72;3.00;;;;;;;;;;6184400;28;20062;-70
2022/08/05 10:05:37;;;;;;;4.63;2.63;;;;;;;;;;6182279;28;20054;-69
2022/08/05 10:08:40;;;;;;;3.20;2.55;;;;;;;;;;6177737;28;20042;-72
2022/08/05 10:11:43;;;;;;;4.13;3.00;;;;;;;;;;6177200;28;20050;-70
2022/08/05 10:14:45;;;;;;;6.15;3.40;;;;;;;;;;6183194;28;20356;-70
2022/08/05 10:18:09;;;;;;;7.43;2.90;;;;;;;;;;6182281;28;20238;-70
2022/08/05 10:21:10;;;;;;;5.35;3.10;;;;;;;;;;6177502;28;20066;-70
2022/08/05 10:24:13;;;;;;;6.40;3.30;;;;;;;;;;6186338;28;20094;-70
2022/08/05 10:27:15;;;;;;;7.72;3.28;;;;;;;;;;6182590;28;20062;-72
2022/08/05 10:30:17;;;;;;;6.63;2.90;;;;;;;;;;6184587;28;20341;-70
2022/08/05 10:33:19;;;;;;;9.98;3.08;;;;;;;;;;6181246;28;20085;-70
2022/08/05 10:36:21;;;;;;;6.15;2.72;;;;;;;;;;6182602;28;20174;-70
2022/08/05 10:39:30;;;;;;;4.20;2.72;;;;;;;;;;6181950;28;20046;-70
2022/08/05 10:42:35;;;;;;;5.25;3.17;;;;;;;;;;6183241;28;20055;-69
2022/08/05 10:45:36;;;;;;;7.57;3.15;;;;;;;;;;6182731;28;20050;-69
2022/08/05 10:48:39;;;;;;;3.78;2.70;;;;;;;;;;6180931;28;20058;-69
2022/08/05 10:51:46;;;;;;;6.43;2.67;;;;;;;;;;6183953;28;20047;-69
2022/08/05 10:55:02;;;;;;;5.03;2.83;;;;;;;;;;6183380;28;20058;-68
2022/08/05 10:58:08;;;;;;;5.07;2.63;;;;;;;;;;6185057;28;20058;-69
2022/08/05 11:01:10;;;;;;;3.10;2.50;;;;;;;;;;6183773;28;20058;-69
2022/08/05 11:04:14;;;;;;;2.83;2.30;;;;;;;;;;6182688;28;20380;-70
2022/08/05 11:07:17;;;;;;;4.70;2.97;;;;;;;;;;6180604;28;20393;-69
2022/08/05 11:10:25;;;;;;;7.05;2.65;;;;;;;;;;6183943;28;20269;-69
2022/08/05 11:13:40;;;;;;;4.22;2.28;;;;;;;;;;6181980;28;20326;-69
2022/08/05 11:16:42;;;;;;;4.68;2.53;;;;;;;;;;6183579;28;20047;-69
2022/08/05 11:19:45;;;;;;;2.88;2.30;;;;;;;;;;6183273;28;20101;-71
2022/08/05 11:22:47;;;;;;;5.60;2.50;;;;;;;;;;6184198;28;20054;-69
2022/08/05 11:26:09;;;;;;;2.30;2.10;;;;;;;;;;6180390;28;20660;-70
2022/08/05 11:29:36;;;;;;;2.10;1.90;;;;;;;;;;6181464;28;20050;-69
2022/08/05 11:32:38;;;;;;;3.92;2.25;;;;;;;;;;6182466;28;20102;-70
2022/08/05 11:35:52;;;;;;;3.70;2.28;;;;;;;;;;6182432;28;20047;-69
2022/08/05 11:38:54;;;;;;;3.90;2.10;;;;;;;;;;6183103;28;20055;-70
2022/08/05 11:41:58;;;;;;;2.00;1.90;;;;;;;;;;6180557;28;20061;-69
2022/08/05 11:45:03;;;;;;;2.65;2.38;;;;;;;;;;6180715;28;20061;-69
2022/08/05 11:48:08;;;;;;;2.65;2.45;;;;;;;;;;6181570;28;20055;-72
2022/08/05 11:51:10;;;;;;;5.00;2.40;;;;;;;;;;6183121;28;20219;-71
2022/08/05 11:54:13;;;;;;;4.00;2.38;;;;;;;;;;6180528;28;20082;-70
2022/08/05 11:57:17;;;;;;;2.78;2.42;;;;;;;;;;6179779;28;20114;-69
2022/08/05 12:00:28;;;;;;;4.20;2.28;;;;;;;;;;6180663;28;20058;-70
2022/08/05 12:03:30;;;;;;;3.78;2.25;;;;;;;;;;6179098;28;20050;-71
2022/08/05 12:06:35;;;;;;;5.50;2.60;;;;;;;;;;6181832;28;20114;-70
2022/08/05 12:09:38;;;;;;;4.38;2.30;;;;;;;;;;6181751;28;20054;-70
2022/08/05 12:12:41;;;;;;;2.80;2.08;;;;;;;;;;6182189;28;20047;-70
2022/08/05 12:15:43;;;;;;;2.95;2.65;;;;;;;;;;6181769;28;20053;-71
2022/08/05 12:18:45;;;;;;;3.33;2.40;;;;;;;;;;6181852;28;20065;-73
2022/08/05 12:21:48;;;;;;;5.70;2.75;;;;;;;;;;6184967;28;20046;-69
2022/08/05 12:24:50;;;;;;;3.70;2.80;;;;;;;;;;6183681;28;20059;-70
2022/08/05 12:27:53;;;;;;;3.97;2.78;;;;;;;;;;6184923;28;20236;-70
2022/08/05 12:30:56;;;;;;;3.00;2.70;;;;;;;;;;6184800;28;20062;-72
2022/08/05 12:33:58;;;;;;;5.30;2.60;;;;;;;;;;6186398;28;20101;-69
2022/08/05 12:37:06;;;;;;;4.47;2.65;;;;;;;;;;6185824;28;20097;-72
2022/08/05 12:40:10;;;;;;;3.00;2.80;;;;;;;;;;6188075;28;20058;-69
2022/08/05 12:43:13;;;;;;;2.47;2.28;;;;;;;;;;6188640;28;20278;-70
2022/08/05 12:46:21;;;;;;;4.35;2.70;;;;;;;;;;6185336;28;20082;-70
2022/08/05 12:49:22;;;;;;;2.53;2.33;;;;;;;;;;6188136;28;20325;-70
2022/08/05 12:52:24;;;;;;;3.60;2.80;;;;;;;;;;6185822;28;20091;-69
2022/08/05 12:55:27;;;;;;;2.63;2.42;;;;;;;;;;6185384;28;20050;-70
2022/08/05 12:58:30;;;;;;;4.80;2.53;;;;;;;;;;6187628;28;20078;-70
2022/08/05 13:01:32;;;;;;;3.70;2.70;;;;;;;;;;6185310;28;20054;-68
2022/08/05 13:04:35;;;;;;;4.03;2.20;;;;;;;;;;6185398;28;20326;-69
2022/08/05 13:07:39;;;;;;;3.28;2.58;;;;;;;;;;6187543;28;20062;-70
2022/08/05 13:10:42;;;;;;;5.03;2.60;;;;;;;;;;6187178;28;20073;-70
2022/08/05 13:13:49;;;;;;;10.57;2.30;;;;;;;;;;6186376;28;20356;-69
2022/08/05 13:16:54;;;;;;;2.60;2.10;;;;;;;;;;6189199;28;20273;-70
2022/08/05 13:20:01;;;;;;;5.03;2.35;;;;;;;;;;6186262;28;20141;-70
2022/08/05 13:23:03;;;;;;;3.25;2.40;;;;;;;;;;6185346;28;20105;-69
2022/08/05 13:26:04;;;;;;;4.20;2.35;;;;;;;;;;6185781;28;20054;-69
2022/08/05 13:29:07;;;;;;;3.28;2.53;;;;;;;;;;6185067;28;20306;-70
2022/08/05 13:32:09;;;;;;;2.33;2.10;;;;;;;;;;6185681;28;20062;-70
2022/08/05 13:35:11;;;;;;;3.63;2.45;;;;;;;;;;6183887;28;20054;-69
2022/08/05 13:38:13;;;;;;;4.03;2.55;;;;;;;;;;6187760;28;20338;-69
2022/08/05 13:41:15;;;;;;;4.47;2.50;;;;;;;;;;6185017;28;21141;-69
2022/08/05 13:44:18;;;;;;;4.13;2.22;;;;;;;;;;6185482;28;20329;-69
2022/08/05 13:47:20;;;;;;;2.40;2.20;;;;;;;;;;6183992;28;20114;-69
2022/08/05 13:50:22;;;;;;;3.03;2.38;;;;;;;;;;6184989;28;20054;-70
2022/08/05 13:53:23;;;;;;;3.10;2.58;;;;;;;;;;6186630;28;20042;-69
2022/08/05 13:56:25;;;;;;;4.60;2.10;;;;;;;;;;6185588;28;20054;-69
2022/08/05 13:59:28;;;;;;;2.40;2.20;;;;;;;;;;6187304;28;20321;-70
2022/08/05 14:02:30;;;;;;;4.82;2.72;;;;;;;;;;6186926;28;20333;-70
2022/08/05 14:05:32;;;;;;;3.60;2.08;;;;;;;;;;6185488;28;20062;-69
2022/08/05 14:08:33;;;;;;;4.78;2.30;;;;;;;;;;6184039;28;20066;-69
2022/08/05 14:11:37;;;;;;;4.28;2.22;;;;;;;;;;6184906;28;20055;-69
2022/08/05 14:14:41;;;;;;;2.40;2.20;;;;;;;;;;6184907;28;20055;-69
2022/08/05 14:17:42;;;;;;;2.72;2.00;;;;;;;;;;6185882;28;20052;-70
2022/08/05 14:20:44;;;;;;;6.97;2.10;;;;;;;;;;6183172;28;20047;-72
2022/08/05 14:23:46;;;;;;;2.33;2.13;;;;;;;;;;6188683;28;20150;-69
2022/08/05 14:26:47;;;;;;;2.90;2.20;;;;;;;;;;6184479;28;20054;-69
2022/08/05 14:29:50;;;;;;;3.90;2.40;;;;;;;;;;6185885;28;20050;-69
2022/08/05 14:32:52;;;;;;;2.10;1.90;;;;;;;;;;6182773;28;20057;-69
2022/08/05 14:35:53;;;;;;;4.10;2.03;;;;;;;;;;6184326;28;20054;-70
2022/08/05 14:38:55;;;;;;;2.17;2.00;;;;;;;;;;6182501;28;20058;-69
2022/08/05 14:41:57;;;;;;;3.60;1.95;;;;;;;;;;6182941;28;20225;-70
2022/08/05 14:45:00;;;;;;;2.40;1.98;;;;;;;;;;6183907;28;20093;-70
2022/08/05 14:48:02;;;;;;;2.30;2.10;;;;;;;;;;6184293;28;20057;-69
2022/08/05 14:51:04;;;;;;;2.38;2.17;;;;;;;;;;6183144;28;20054;-69
2022/08/05 14:54:06;;;;;;;4.78;2.33;;;;;;;;;;6184234;28;20050;-70
2022/08/05 14:57:08;;;;;;;2.13;1.90;;;;;;;;;;6182079;28;20195;-69
2022/08/05 15:00:12;;;;;;;2.85;2.30;;;;;;;;;;6182036;28;20080;-69
2022/08/05 15:03:14;;;;;;;2.83;1.92;;;;;;;;;;6182622;28;20060;-69
2022/08/05 15:06:15;;;;;;;4.60;2.30;;;;;;;;;;6184539;28;20066;-69
2022/08/05 15:09:17;;;;;;;2.40;2.20;;;;;;;;;;6182904;28;20062;-70
2022/08/05 15:12:19;;;;;;;6.68;2.60;;;;;;;;;;6182391;28;20062;-69
2022/08/05 15:15:22;;;;;;;2.67;2.47;;;;;;;;;;6181655;28;20054;-70
2022/08/05 15:18:24;;;;;;;4.57;3.15;;;;;;;;;;6181895;28;20055;-70
2022/08/05 15:21:25;;;;;;;4.65;2.33;;;;;;;;;;6182899;28;20058;-70
2022/08/05 15:24:27;;;;;;;4.47;2.47;;;;;;;;;;6181079;28;20105;-70
2022/08/05 15:27:29;;;;;;;3.25;2.50;;;;;;;;;;6179943;28;20050;-71
2022/08/05 15:30:33;;;;;;;4.07;2.20;;;;;;;;;;6182489;28;20053;-72
2022/08/05 15:33:34;;;;;;;2.70;2.20;;;;;;;;;;6179263;28;20047;-70
2022/08/05 15:36:36;;;;;;;2.45;2.25;;;;;;;;;;6181430;28;20261;-70
2022/08/05 15:39:38;;;;;;;2.22;2.10;;;;;;;;;;6181837;28;20337;-70
2022/08/05 15:42:39;;;;;;;3.35;2.35;;;;;;;;;;6181802;28;20258;-69
2022/08/05 15:45:44;;;;;;;3.70;2.20;;;;;;;;;;6180046;28;20403;-72
2022/08/05 15:48:46;;;;;;;4.80;2.20;;;;;;;;;;6182477;28;20051;-69
2022/08/05 15:51:47;;;;;;;3.63;2.40;;;;;;;;;;6180931;28;20055;-69
2022/08/05 15:54:51;;;;;;;1.90;1.80;;;;;;;;;;6182102;28;20046;-68
2022/08/05 15:57:53;;;;;;;2.45;2.10;;;;;;;;;;6180756;28;20063;-71
2022/08/05 16:00:56;;;;;;;;;;;;;;;;;;6183767;28;20047;-69
2022/08/05 16:03:57;;;;;;;2.40;2.20;;;;;;;;;;6180258;28;19922;-69
2022/08/05 16:06:59;;;;;;;;;;;;;;;;;;6183010;28;20059;-69
2022/08/05 16:10:00;;;;;;;6.27;2.13;;;;;;;;;;6181675;28;19925;-69
2022/08/05 16:13:02;;;;;;;3.42;1.90;;;;;;;;;;6174488;28;20654;-67
2022/08/05 16:16:06;;;;;;;2.28;2.00;;;;;;;;;;6183219;28;20102;-68
2022/08/05 16:19:07;;;;;;;3.40;1.80;;;;;;;;;;6187271;28;20051;-68
2022/08/05 16:22:09;;;;;;;3.08;2.15;;;;;;;;;;6180766;28;20050;-68
2022/08/05 16:25:12;;;;;;;2.80;2.45;;;;;;;;;;6182589;28;20065;-69
2022/08/05 16:28:13;;;;;;;4.22;2.55;;;;;;;;;;6179996;28;20055;-69
2022/08/05 16:31:16;;;;;;;2.95;2.10;;;;;;;;;;6183136;28;20070;-68
2022/08/05 16:34:19;;;;;;;3.25;2.50;;;;;;;;;;6179965;28;20282;-70
2022/08/05 16:37:20;;;;;;;3.35;2.35;;;;;;;;;;6180987;28;20062;-71
2022/08/05 16:40:22;;;;;;;3.30;2.35;;;;;;;;;;6180297;28;20142;-69
2022/08/05 16:43:25;;;;;;;2.95;2.22;;;;;;;;;;6185261;28;20245;-72
2022/08/05 16:46:28;;;;;;;2.85;2.17;;;;;;;;;;6182267;28;20050;-67
2022/08/05 16:49:29;;;;;;;2.00;1.80;;;;;;;;;;6184464;28;20059;-68
2022/08/05 16:52:31;;;;;;;2.25;1.95;;;;;;;;;;6179948;28;20074;-68
2022/08/05 16:55:33;;;;;;;3.38;1.73;;;;;;;;;;6180357;28;20051;-67
2022/08/05 16:58:35;;;;;;;2.75;2.50;;;;;;;;;;6180523;28;20067;-72
2022/08/05 17:01:38;;;;;;;3.30;2.38;;;;;;;;;;6181886;28;21700;-67
2022/08/05 17:04:40;;;;;;;2.30;2.10;;;;;;;;;;6180239;28;20281;-67
2022/08/05 17:07:41;;;;;;;;;;;;;;;;;;6181806;28;20093;-68
2022/08/05 17:10:43;;;;;;;4.05;2.60;;;;;;;;;;6181474;28;19973;-69
2022/08/05 17:13:45;;;;;;;4.47;2.38;;;;;;;;;;6184876;28;20078;-68
2022/08/05 17:16:48;;;;;;;3.95;2.60;;;;;;;;;;6186031;28;20106;-67
2022/08/05 17:19:49;;;;;;;4.70;2.45;;;;;;;;;;6188892;28;20050;-70
2022/08/05 17:22:51;;;;;;;3.80;2.38;;;;;;;;;;6188616;28;20061;-68
2022/08/05 17:25:53;;;;;;;2.72;2.45;;;;;;;;;;6184169;28;20294;-68
2022/08/05 17:28:55;;;;;;;2.63;2.42;;;;;;;;;;6186299;28;20047;-68
2022/08/05 17:31:58;;;;;;;3.08;2.53;;;;;;;;;;6183258;28;20047;-69
2022/08/05 17:34:59;;;;;;;3.63;2.60;;;;;;;;;;6185440;28;20404;-68
2022/08/05 17:38:01;;;;;;;4.45;2.72;;;;;;;;;;6186492;28;20344;-69
2022/08/05 17:41:03;;;;;;;3.50;2.70;;;;;;;;;;6184966;28;20305;-68
2022/08/05 17:44:04;;;;;;;3.55;2.67;;;;;;;;;;6182994;28;20050;-68
2022/08/05 17:47:07;;;;;;;4.10;2.60;;;;;;;;;;6184607;28;20058;-69
2022/08/05 17:50:10;;;;;;;3.88;2.67;;;;;;;;;;6184129;28;20094;-69
2022/08/05 17:53:12;;;;;;;5.55;2.60;;;;;;;;;;6184081;28;20062;-69
2022/08/05 17:56:13;;;;;;;4.75;2.50;;;;;;;;;;6185890;28;20345;-69
2022/08/05 17:59:15;;;;;;;3.10;2.80;;;;;;;;;;6184406;28;20063;-68
2022/08/05 18:02:18;;;;;;;5.22;2.67;;;;;;;;;;6183659;28;20050;-68
2022/08/05 18:05:20;;;;;;;2.60;2.40;;;;;;;;;;6184101;28;20057;-69
2022/08/05 18:08:21;;;;;;;4.07;2.40;;;;;;;;;;6184550;28;20050;-68
2022/08/05 18:11:23;;;;;;;6.60;2.47;;;;;;;;;;6185319;28;20341;-71
2022/08/05 18:14:25;;;;;;;6.88;2.60;;;;;;;;;;6186414;28;20054;-69
2022/08/05 18:17:28;;;;;;;4.38;2.30;;;;;;;;;;6183882;28;20054;-68
2022/08/05 18:20:30;;;;;;;2.50;2.15;;;;;;;;;;6182733;28;20062;-69
2022/08/05 18:23:31;;;;;;;5.07;2.10;;;;;;;;;;6189589;28;20049;-70